Fortaleza Dos Nogueiras, Brazil
Current Conditions -  °F | °C
As of 12:00 PM on Friday 24 Oct 2014 (Local Time) from SBIZ Reporting Station
Overcast Overcast  
Wind Chill: 86°   Ceiling: 2000
Heat Index: 93°   Visibility: 6mi
Dew Point: 73°   Wind: 3mph
Humidity: 66%   Direction: 100°E
Pressure: 29.91"   Gusts: NA
Location:  6.9°S, 46.15°W
Report Text: SBIZ 241500Z 10003KT 9999 OVC020 30/23 Q1013
Loading
Personal Weather Stations






























Interactive Weather Map
Tropical Storm Tracking
New forecast layout! Learn more

10-Day Weather Forecast

Advertisements
Track Severe Weather on mobile